Time;durP1;ratioP1;P1;durP2;ratioP2;P2;SDS_P1;SDS_P2;PMS_P1;PMS_P2;Temp;Humidity;BMP_temperature;BMP_pressure;BME280_temperature;BME280_humidity;BME280_pressure;Samples;Min_cycle;Max_cycle;Signal;HPM_P1;HPM_P2
2022/01/13 00:01:08;;;;;;;29.65;17.58;;;;;;;6.41;100.00;103064.50;5076019;28;20542;-49
2022/01/13 00:03:36;;;;;;;27.75;16.95;;;;;;;6.36;100.00;103061.88;5076542;28;20102;-52
2022/01/13 00:06:05;;;;;;;30.98;15.82;;;;;;;6.27;100.00;103056.63;5076747;28;20098;-51
2022/01/13 00:08:33;;;;;;;25.88;15.57;;;;;;;6.14;100.00;103055.81;5076007;28;20403;-52
2022/01/13 00:11:01;;;;;;;23.65;15.48;;;;;;;6.06;100.00;103049.69;5076838;28;20131;-50
2022/01/13 00:13:44;;;;;;;25.50;14.77;;;;;;;5.91;100.00;103048.78;5075726;28;20147;-51
2022/01/13 00:16:26;;;;;;;;;;;;;;;5.81;100.00;103047.06;5075916;28;20520;-53
2022/01/13 00:19:06;;;;;;;22.70;13.10;;;;;;;5.64;100.00;103044.44;5076844;28;19920;-52
2022/01/13 00:21:38;;;;;;;22.77;13.50;;;;;;;5.51;100.00;103042.69;5075360;28;20143;-52
2022/01/13 00:24:11;;;;;;;23.60;13.48;;;;;;;5.39;100.00;103043.59;5076438;28;20139;-50
2022/01/13 00:26:40;;;;;;;25.65;14.20;;;;;;;5.28;100.00;103040.97;5076511;28;20131;-50
2022/01/13 00:29:09;;;;;;;21.88;13.30;;;;;;;5.13;100.00;103041.81;5075439;28;20136;-53
2022/01/13 00:31:41;;;;;;;23.10;13.90;;;;;;;5.00;100.00;103042.69;5075380;28;20127;-50
2022/01/13 00:34:10;;;;;;;23.73;12.90;;;;;;;4.86;100.00;103039.13;5075081;28;20110;-52
2022/01/13 00:36:40;;;;;;;24.38;14.65;;;;;;;4.78;100.00;103042.63;5075286;28;20052;-51
2022/01/13 00:39:11;;;;;;;29.95;16.08;;;;;;;4.70;100.00;103031.22;5075543;28;20445;-51
2022/01/13 00:41:39;;;;;;;26.95;15.02;;;;;;;4.61;100.00;103036.47;5076173;28;20059;-52
2022/01/13 00:44:09;;;;;;;23.90;14.85;;;;;;;4.55;100.00;103026.78;5075101;28;20135;-52
2022/01/13 00:46:44;;;;;;;28.25;14.55;;;;;;;4.49;100.00;103033.78;5075083;28;20154;-53
2022/01/13 00:49:13;;;;;;;24.25;13.65;;;;;;;4.38;100.00;103033.75;5074832;28;20087;-52
2022/01/13 00:51:42;;;;;;;29.13;14.52;;;;;;;4.31;100.00;103027.59;5075211;28;20131;-52
2022/01/13 00:54:11;;;;;;;26.05;14.20;;;;;;;4.23;100.00;103026.66;5075425;28;20121;-52
2022/01/13 00:56:40;;;;;;;24.00;14.13;;;;;;;4.14;100.00;103034.53;5074910;28;20140;-52
2022/01/13 00:59:10;;;;;;;26.40;14.35;;;;;;;4.03;100.00;103023.94;5075189;28;20131;-51
2022/01/13 01:01:41;;;;;;;28.23;13.45;;;;;;;3.98;100.00;103029.16;5074785;28;20062;-51
2022/01/13 01:04:10;;;;;;;27.75;14.00;;;;;;;3.90;100.00;103036.13;5074305;28;20424;-52
2022/01/13 01:06:39;;;;;;;29.88;16.02;;;;;;;3.93;100.00;103033.50;5074733;28;20139;-50
2022/01/13 01:09:13;;;;;;;33.85;15.50;;;;;;;3.87;100.00;103030.88;5074822;28;20522;-52
2022/01/13 01:11:43;;;;;;;25.27;14.25;;;;;;;3.81;100.00;103030.81;5074427;28;20056;-52
2022/01/13 01:14:13;;;;;;;30.40;14.95;;;;;;;3.84;100.00;103042.22;5075472;28;20064;-51
2022/01/13 01:16:43;;;;;;;25.20;14.02;;;;;;;3.84;100.00;103036.97;5074561;28;20603;-52
2022/01/13 01:19:13;;;;;;;29.10;15.23;;;;;;;3.88;100.00;103037.84;5074807;28;20057;-51
2022/01/13 01:27:36;;;;;;;31.63;16.38;;;;;;;4.03;100.00;103032.69;5074399;28;20056;-51
2022/01/13 01:30:10;;;;;;;30.77;16.63;;;;;;;4.11;100.00;103029.25;5075577;28;20063;-51
2022/01/13 01:32:40;;;;;;;28.40;16.05;;;;;;;4.25;100.00;103032.81;5075100;28;20068;-52
2022/01/13 01:35:14;;;;;;;31.92;16.95;;;;;;;4.39;100.00;103025.88;5075512;28;20056;-52
2022/01/13 01:37:43;;;;;;;27.83;15.98;;;;;;;4.54;100.00;103029.41;5075498;28;20057;-52
2022/01/13 01:40:13;;;;;;;39.78;19.75;;;;;;;4.72;100.00;103025.97;5074861;28;20062;-52
2022/01/13 01:42:42;;;;;;;33.75;17.95;;;;;;;4.82;100.00;103019.84;5074752;28;20053;-51
2022/01/13 01:45:11;;;;;;;34.53;17.90;;;;;;;4.94;100.00;103026.88;5074768;28;20404;-52
2022/01/13 01:47:43;;;;;;;40.03;19.25;;;;;;;4.99;100.00;103027.75;5074453;28;20079;-53
2022/01/13 01:50:18;;;;;;;34.40;17.95;;;;;;;5.00;100.00;103016.38;5073932;28;20071;-51
2022/01/13 01:52:47;;;;;;;36.85;17.90;;;;;;;5.04;100.00;103023.38;5074719;28;20127;-51
2022/01/13 01:55:16;;;;;;;34.90;17.10;;;;;;;5.07;100.00;103030.41;5075006;28;20064;-51
2022/01/13 01:57:45;;;;;;;39.92;19.25;;;;;;;5.13;100.00;103031.31;5074611;28;20053;-52
2022/01/13 02:00:16;;;;;;;37.45;18.15;;;;;;;5.19;100.00;103026.06;5074056;28;20057;-52
2022/01/13 02:02:46;;;;;;;39.00;17.77;;;;;;;5.22;100.00;103026.03;5074040;28;20056;-52
2022/01/13 02:05:15;;;;;;;39.97;18.55;;;;;;;5.24;100.00;103017.28;5074823;28;20067;-52
2022/01/13 02:07:43;;;;;;;33.95;17.27;;;;;;;5.25;100.00;103019.03;5073977;28;20060;-52
2022/01/13 02:10:12;;;;;;;37.70;19.25;;;;;;;5.24;100.00;103020.78;5074615;28;20061;-52
2022/01/13 02:12:45;;;;;;;31.00;17.35;;;;;;;5.22;100.00;103020.75;5075068;28;20056;-50
2022/01/13 02:15:29;;;;;;;31.02;17.30;;;;;;;5.18;100.00;103011.13;5075576;28;20082;-50
2022/01/13 02:18:00;;;;;;;31.48;15.63;;;;;;;5.12;100.00;103011.13;5078620;28;20123;-52
2022/01/13 02:20:50;;;;;;;36.40;18.93;;;;;;;4.98;100.00;103010.25;5078351;28;20068;-52
2022/01/13 02:23:33;;;;;;;35.15;16.73;;;;;;;4.79;100.00;103012.84;5077920;28;20420;-52
2022/01/13 02:26:01;;;;;;;30.27;15.38;;;;;;;4.60;100.00;103008.41;5078995;28;20075;-52
2022/01/13 02:28:30;;;;;;;25.02;14.15;;;;;;;4.41;100.00;103012.75;5078928;28;20052;-51
2022/01/13 02:30:58;;;;;;;32.67;14.80;;;;;;;4.21;100.00;103012.66;5078059;28;20381;-52
2022/01/13 02:33:27;;;;;;;38.15;15.18;;;;;;;4.08;100.00;103006.44;5078540;28;20056;-52
2022/01/13 02:35:57;;;;;;;27.00;14.60;;;;;;;3.93;100.00;103001.13;5077366;28;20056;-50
2022/01/13 02:38:25;;;;;;;24.58;13.68;;;;;;;3.80;100.00;102998.44;5078397;28;20053;-52
2022/01/13 02:40:55;;;;;;;33.25;15.25;;;;;;;3.71;100.00;102994.00;5077822;28;20086;-51
2022/01/13 02:43:24;;;;;;;27.67;14.57;;;;;;;3.63;100.00;103000.06;5077738;28;20057;-52
2022/01/13 02:46:05;;;;;;;29.00;13.63;;;;;;;3.50;100.00;102999.13;5077632;28;20065;-52
2022/01/13 02:48:35;;;;;;;33.90;15.95;;;;;;;3.47;100.00;102999.97;5077953;28;20083;-52
2022/01/13 02:51:05;;;;;;;34.80;16.08;;;;;;;3.49;100.00;102998.22;5077848;28;20091;-52
2022/01/13 02:53:33;;;;;;;25.25;13.13;;;;;;;3.48;100.00;102998.22;5077297;28;20052;-52
2022/01/13 02:56:04;;;;;;;30.77;15.32;;;;;;;3.41;100.00;102997.28;5078070;28;20135;-51
2022/01/13 02:58:33;;;;;;;18.02;9.13;;;;;;;3.32;100.00;102989.34;5076952;28;20512;-52
2022/01/13 03:01:03;;;;;;;26.33;13.52;;;;;;;3.24;100.00;102985.78;5077452;28;20052;-51
2022/01/13 03:03:33;;;;;;;30.75;14.20;;;;;;;3.16;100.00;102984.00;5078547;28;20447;-50
2022/01/13 03:06:08;;;;;;;28.25;13.50;;;;;;;3.09;100.00;102986.53;5077562;28;20411;-52
2022/01/13 03:08:36;;;;;;;29.73;14.40;;;;;;;3.01;100.00;102985.59;5076471;28;20052;-52
2022/01/13 03:11:05;;;;;;;33.10;15.00;;;;;;;2.98;100.00;102989.94;5076941;28;20056;-52
2022/01/13 03:13:33;;;;;;;30.13;14.40;;;;;;;2.98;100.00;102979.47;5076042;28;20087;-53
2022/01/13 03:16:06;;;;;;;30.70;14.60;;;;;;;3.02;100.00;102979.50;5075722;28;20056;-52
2022/01/13 03:18:34;;;;;;;28.63;12.77;;;;;;;3.04;100.00;102978.63;5076312;28;20052;-51
2022/01/13 03:21:03;;;;;;;28.75;12.70;;;;;;;3.06;100.00;102976.00;5076198;28;20060;-52
2022/01/13 03:23:32;;;;;;;26.80;13.32;;;;;;;3.04;100.00;102975.13;5075637;28;20071;-50
2022/01/13 03:26:00;;;;;;;21.90;12.65;;;;;;;2.95;100.00;102979.44;5075401;28;20067;-51
2022/01/13 03:28:30;;;;;;;23.17;12.45;;;;;;;2.86;100.00;102979.34;5075804;28;20056;-52
2022/01/13 03:31:00;;;;;;;23.17;12.43;;;;;;;2.75;100.00;102970.50;5075488;28;20052;-53
2022/01/13 03:33:29;;;;;;;24.02;12.48;;;;;;;2.67;100.00;102980.03;5075472;28;20059;-52
2022/01/13 03:35:58;;;;;;;29.35;11.68;;;;;;;2.57;100.00;102977.31;5075724;28;20061;-51
2022/01/13 03:38:27;;;;;;;29.77;12.98;;;;;;;2.56;100.00;102969.44;5075327;28;20052;-50
2022/01/13 03:40:56;;;;;;;27.38;12.35;;;;;;;2.53;100.00;102962.41;5075649;28;20060;-52
2022/01/13 03:43:24;;;;;;;24.90;12.15;;;;;;;2.47;100.00;102965.00;5076235;28;20065;-52
2022/01/13 03:45:53;;;;;;;25.17;12.00;;;;;;;2.46;100.00;102960.59;5074928;28;20061;-51
2022/01/13 03:48:21;;;;;;;20.02;10.73;;;;;;;2.46;100.00;102952.75;5075482;28;20068;-52
2022/01/13 03:50:49;;;;;;;22.35;11.13;;;;;;;2.37;100.00;102943.06;5075452;28;20060;-52
2022/01/13 03:54:06;;;;;;;21.52;11.00;;;;;;;2.32;100.00;102943.84;5075718;28;20053;-50
2022/01/13 03:57:02;;;;;;;27.02;11.52;;;;;;;2.28;100.00;102952.53;5075970;28;20520;-50
2022/01/13 04:00:01;;;;;;;21.00;10.88;;;;;;;2.22;100.00;102943.75;5076255;28;20052;-52
2022/01/13 04:02:29;;;;;;;24.27;11.35;;;;;;;2.20;100.00;102935.00;5054053;28;20500;-51
2022/01/13 04:04:57;;;;;;;23.80;11.82;;;;;;;2.24;100.00;102935.91;5074868;28;20067;-51
2022/01/13 04:07:27;;;;;;;21.05;11.82;;;;;;;2.22;100.00;102933.28;5075420;28;20049;-52
2022/01/13 04:10:28;;;;;;;22.67;10.50;;;;;;;2.14;100.00;102940.16;5031274;28;1270993;-52
2022/01/13 04:12:58;;;;;;;27.13;10.75;;;;;;;2.09;100.00;102944.47;5076985;28;20484;-52
2022/01/13 04:15:30;;;;;;;25.42;11.70;;;;;;;2.12;100.00;102939.28;5076667;28;20076;-50
2022/01/13 04:17:58;;;;;;;22.42;11.27;;;;;;;2.07;100.00;102940.97;5076361;28;20056;-52
2022/01/13 04:20:26;;;;;;;25.00;11.23;;;;;;;2.09;100.00;102934.00;5075928;28;20063;-52
2022/01/13 04:22:55;;;;;;;26.90;12.52;;;;;;;2.03;100.00;102936.53;5075615;28;20063;-52
2022/01/13 04:25:23;;;;;;;22.33;12.25;;;;;;;2.04;100.00;102933.06;5076675;28;20057;-51
2022/01/13 04:28:01;;;;;;;31.42;11.82;;;;;;;2.09;100.00;102934.00;5075519;28;20476;-52
2022/01/13 04:30:45;;;;;;;21.73;10.10;;;;;;;2.06;100.00;102952.28;5075211;28;20074;-52
2022/01/13 04:33:14;;;;;;;28.73;12.57;;;;;;;2.07;100.00;102943.56;5075127;28;20061;-52
2022/01/13 04:35:42;;;;;;;32.53;11.43;;;;;;;2.03;100.00;102950.53;5076266;28;20056;-51
2022/01/13 04:38:11;;;;;;;25.73;11.63;;;;;;;2.02;100.00;102946.13;5075089;28;20063;-52
2022/01/13 04:40:44;;;;;;;27.20;13.05;;;;;;;2.07;100.00;102948.81;5075578;28;20063;-51
2022/01/13 04:43:13;;;;;;;27.20;12.82;;;;;;;2.02;100.00;102945.25;5075608;28;20052;-50
2022/01/13 04:45:43;;;;;;;26.63;12.45;;;;;;;1.97;100.00;102946.94;5075587;28;20052;-52
2022/01/13 04:48:11;;;;;;;24.45;12.70;;;;;;;1.93;100.00;102951.22;5075380;28;20532;-50
2022/01/13 04:50:40;;;;;;;23.25;11.05;;;;;;;1.88;100.00;102949.44;5075580;28;20049;-50
2022/01/13 04:53:08;;;;;;;24.08;11.40;;;;;;;1.82;100.00;102951.09;5075274;28;20064;-52
2022/01/13 04:55:37;;;;;;;26.17;10.93;;;;;;;1.66;100.00;102930.81;5074719;28;20063;-50
2022/01/13 04:58:06;;;;;;;30.75;11.82;;;;;;;1.70;100.00;102948.34;5075364;28;20557;-51
2022/01/13 05:00:35;;;;;;;26.38;11.07;;;;;;;1.69;100.00;102954.41;5075143;28;20076;-51
2022/01/13 05:03:04;;;;;;;26.02;11.55;;;;;;;1.63;100.00;102954.31;5074805;28;20064;-50
2022/01/13 05:05:33;;;;;;;24.80;11.05;;;;;;;1.64;100.00;102969.16;5074462;28;20053;-52
2022/01/13 05:08:01;;;;;;;22.88;10.90;;;;;;;1.60;100.00;102962.16;5074735;28;20531;-50
2022/01/13 05:10:29;;;;;;;23.23;11.35;;;;;;;1.58;100.00;102971.69;5075598;28;20067;-51
2022/01/13 05:12:58;;;;;;;24.52;11.95;;;;;;;1.57;100.00;102968.19;5074958;28;20526;-52
2022/01/13 05:15:27;;;;;;;27.98;13.80;;;;;;;1.54;100.00;102975.13;5074894;28;20450;-50
2022/01/13 05:18:05;;;;;;;31.05;13.38;;;;;;;1.53;100.00;102975.97;5074830;28;20084;-52
2022/01/13 05:20:45;;;;;;;32.13;13.43;;;;;;;1.54;100.00;102982.97;5074330;28;20052;-52
2022/01/13 05:23:14;;;;;;;34.30;13.80;;;;;;;1.47;100.00;102969.78;5074271;28;20504;-51
2022/01/13 05:25:43;;;;;;;31.08;13.43;;;;;;;1.46;100.00;102975.91;5075515;28;20079;-52
2022/01/13 05:28:11;;;;;;;31.35;13.85;;;;;;;1.44;100.00;102977.59;5075001;28;20048;-51
2022/01/13 05:30:40;;;;;;;37.60;13.55;;;;;;;1.45;100.00;102973.25;5074337;28;20057;-50
2022/01/13 05:33:08;;;;;;;32.33;13.52;;;;;;;1.44;100.00;102972.34;5075478;28;20392;-52
2022/01/13 05:35:38;;;;;;;28.92;12.88;;;;;;;1.45;100.00;102975.88;5074928;28;20064;-51
2022/01/13 05:38:07;;;;;;;32.72;14.00;;;;;;;1.49;100.00;102981.16;5074598;28;20056;-52
2022/01/13 05:40:36;;;;;;;33.17;13.80;;;;;;;1.44;100.00;102982.81;5075134;28;20422;-52
2022/01/13 05:43:05;;;;;;;32.22;13.65;;;;;;;1.44;100.00;102988.06;5074252;28;20056;-52
2022/01/13 05:45:38;;;;;;;32.40;15.32;;;;;;;1.51;100.00;102993.38;5074190;28;20520;-52
2022/01/13 05:48:07;;;;;;;43.55;15.93;;;;;;;1.51;100.00;102996.00;5074469;28;20500;-50
2022/01/13 05:50:37;;;;;;;33.40;14.25;;;;;;;1.54;100.00;102994.31;5074013;28;20053;-52
2022/01/13 05:53:05;;;;;;;35.22;15.13;;;;;;;1.57;100.00;102990.88;5074336;28;20052;-52
2022/01/13 05:55:34;;;;;;;35.33;16.33;;;;;;;1.55;100.00;102989.97;5074967;28;20064;-51
2022/01/13 05:58:03;;;;;;;38.50;15.48;;;;;;;1.55;100.00;102995.22;5074372;28;20053;-52
2022/01/13 06:00:31;;;;;;;40.92;17.13;;;;;;;1.59;100.00;102991.78;5074008;28;20539;-52
2022/01/13 06:03:00;;;;;;;40.80;17.83;;;;;;;1.60;100.00;102983.94;5073968;28;20493;-51
2022/01/13 06:05:28;;;;;;;36.95;15.57;;;;;;;1.55;100.00;102979.53;5073635;28;20052;-51
2022/01/13 06:07:58;;;;;;;41.42;18.92;;;;;;;1.51;100.00;102980.31;5074229;28;20068;-52
2022/01/13 06:10:27;;;;;;;46.72;18.77;;;;;;;1.56;100.00;102971.66;5074476;28;20082;-52
2022/01/13 06:12:55;;;;;;;41.30;16.27;;;;;;;1.54;100.00;102981.22;5074244;28;20059;-52
2022/01/13 06:15:25;;;;;;;45.72;18.17;;;;;;;1.47;100.00;102980.25;5074291;28;20052;-52
2022/01/13 06:17:55;;;;;;;53.65;20.42;;;;;;;1.52;100.00;102975.09;5074126;28;20057;-51
2022/01/13 06:20:24;;;;;;;48.00;19.05;;;;;;;1.53;100.00;102986.44;5074587;28;20061;-52
2022/01/13 06:22:53;;;;;;;63.50;21.50;;;;;;;1.52;100.00;102984.69;5074130;28;20060;-52
2022/01/13 06:25:22;;;;;;;53.05;19.33;;;;;;;1.47;100.00;102982.88;5073833;28;20424;-51
2022/01/13 06:27:51;;;;;;;51.92;19.20;;;;;;;1.51;100.00;102988.16;5074273;28;20087;-52
2022/01/13 06:30:39;;;;;;;46.08;16.83;;;;;;;1.46;100.00;102988.97;5073824;28;20052;-51
2022/01/13 06:33:07;;;;;;;48.58;17.95;;;;;;;1.37;100.00;102980.97;5073929;28;20052;-53
2022/01/13 06:35:37;;;;;;;40.90;16.27;;;;;;;1.40;100.00;102980.16;5074600;28;20503;-51
2022/01/13 06:38:05;;;;;;;41.63;16.38;;;;;;;1.27;100.00;102984.31;5073631;28;20056;-52
2022/01/13 06:40:35;;;;;;;45.58;17.08;;;;;;;1.22;100.00;102985.97;5073622;28;20060;-52
2022/01/13 06:43:03;;;;;;;36.38;15.73;;;;;;;1.13;100.00;102991.03;5073497;28;20052;-52
2022/01/13 06:45:32;;;;;;;34.50;16.40;;;;;;;1.10;100.00;102982.28;5074129;28;20060;-52
2022/01/13 06:48:00;;;;;;;41.47;18.15;;;;;;;1.15;100.00;102976.28;5073780;28;20063;-52
2022/01/13 06:50:28;;;;;;;43.67;17.80;;;;;;;1.19;100.00;102975.44;5073527;28;20052;-51
2022/01/13 06:52:56;;;;;;;41.85;17.48;;;;;;;1.18;100.00;102979.81;5073722;28;20060;-52
2022/01/13 06:55:25;;;;;;;49.63;19.38;;;;;;;1.10;100.00;102978.81;5074108;28;20056;-49
2022/01/13 06:57:55;;;;;;;39.55;16.42;;;;;;;1.09;100.00;102982.25;5073366;28;20528;-50
2022/01/13 07:00:24;;;;;;;36.20;15.68;;;;;;;1.06;100.00;102974.34;5073724;28;20052;-51
2022/01/13 07:02:55;;;;;;;45.05;16.92;;;;;;;1.06;100.00;102977.88;5077248;28;20086;-52
2022/01/13 07:05:23;;;;;;;42.67;17.47;;;;;;;1.02;100.00;102975.19;5078137;28;20131;-50
2022/01/13 07:07:52;;;;;;;44.70;15.48;;;;;;;0.89;100.00;102971.47;5077232;28;20052;-52
2022/01/13 07:10:20;;;;;;;37.78;14.60;;;;;;;0.82;100.00;102969.59;5078052;28;20383;-52
2022/01/13 07:12:48;;;;;;;33.30;15.40;;;;;;;0.74;100.00;102970.34;5077221;28;20053;-51
2022/01/13 07:15:18;;;;;;;32.00;14.40;;;;;;;0.71;100.00;102983.34;5077496;28;20056;-51
2022/01/13 07:17:47;;;;;;;39.47;16.60;;;;;;;0.74;100.00;102975.56;5077136;28;20056;-51
2022/01/13 07:20:15;;;;;;;59.45;19.27;;;;;;;0.94;100.00;102982.88;5077351;28;20121;-52
2022/01/13 07:22:44;;;;;;;56.38;20.50;;;;;;;0.96;100.00;102983.81;5076765;28;20573;-52
2022/01/13 07:25:12;;;;;;;58.17;21.88;;;;;;;1.01;100.00;102982.16;5077592;28;20052;-51
2022/01/13 07:27:41;;;;;;;54.90;20.75;;;;;;;1.09;100.00;102990.09;5077241;28;20381;-52
2022/01/13 07:30:11;;;;;;;74.82;22.45;;;;;;;1.19;100.00;102985.91;5077206;28;20075;-50
2022/01/13 07:32:41;;;;;;;66.38;22.92;;;;;;;1.19;100.00;102986.78;5077178;28;20079;-51
2022/01/13 07:35:10;;;;;;;62.33;21.60;;;;;;;1.22;100.00;102981.59;5076266;28;20053;-52
2022/01/13 07:37:40;;;;;;;64.25;23.13;;;;;;;1.29;100.00;102983.50;5076706;28;20060;-52
2022/01/13 07:40:13;;;;;;;71.95;25.25;;;;;;;1.33;100.00;102986.13;5076983;28;20067;-52
2022/01/13 07:42:42;;;;;;;77.05;22.63;;;;;;;1.30;100.00;102985.22;5076373;28;20056;-52
2022/01/13 07:45:11;;;;;;;61.10;20.05;;;;;;;1.27;100.00;102979.94;5077196;28;20057;-51
2022/01/13 07:47:41;;;;;;;72.07;23.92;;;;;;;1.24;100.00;102992.97;5076417;28;20053;-50
2022/01/13 07:50:11;;;;;;;69.55;21.58;;;;;;;1.26;100.00;102987.75;5076565;28;20059;-52
2022/01/13 07:52:39;;;;;;;81.47;23.77;;;;;;;1.26;100.00;102985.16;5077222;28;20063;-52
2022/01/13 07:55:08;;;;;;;76.20;22.77;;;;;;;1.27;100.00;102986.91;5076940;28;20083;-51
2022/01/13 07:57:37;;;;;;;74.65;24.02;;;;;;;1.35;100.00;102987.06;5076353;28;20091;-50
2022/01/13 08:00:07;;;;;;;64.72;21.23;;;;;;;1.26;100.00;102993.00;5076898;28;20063;-52
2022/01/13 08:02:35;;;;;;;69.32;24.58;;;;;;;1.27;100.00;102990.41;5076053;28;20068;-52
2022/01/13 08:05:06;;;;;;;76.05;22.13;;;;;;;1.20;100.00;102993.78;5075753;28;20114;-52
2022/01/13 08:07:34;;;;;;;65.72;21.35;;;;;;;1.19;100.00;102996.38;5076329;28;20061;-52
2022/01/13 08:10:03;;;;;;;75.90;22.90;;;;;;;1.21;100.00;102992.03;5076507;28;20060;-51
2022/01/13 08:12:31;;;;;;;70.97;23.92;;;;;;;1.29;100.00;102993.94;5074831;28;20057;-50
2022/01/13 08:15:00;;;;;;;74.15;23.90;;;;;;;1.36;100.00;102992.31;5075512;28;20052;-50
2022/01/13 08:20:17;;;;;;;71.13;26.70;;;;;;;1.49;100.00;102999.47;5050410;28;20056;-52
2022/01/13 08:22:46;;;;;;;78.45;27.15;;;;;;;1.53;100.00;102996.91;5075969;28;20408;-52
2022/01/13 08:25:15;;;;;;;104.10;29.67;;;;;;;1.58;100.00;102995.22;5076462;28;20079;-51
2022/01/13 08:27:43;;;;;;;73.10;25.45;;;;;;;1.62;100.00;102991.81;5076321;28;20057;-51
2022/01/13 08:30:13;;;;;;;88.47;27.30;;;;;;;1.64;100.00;102990.09;5075938;28;20061;-52
2022/01/13 08:32:41;;;;;;;80.38;26.88;;;;;;;1.64;100.00;102985.75;5075270;28;20055;-51
2022/01/13 08:35:10;;;;;;;93.40;27.70;;;;;;;1.62;100.00;102987.47;5075925;28;20052;-52
2022/01/13 08:37:42;;;;;;;85.55;29.25;;;;;;;1.72;100.00;102993.72;5075576;28;20075;-49
2022/01/13 08:40:13;;;;;;;94.95;28.73;;;;;;;1.81;100.00;102983.38;5075908;28;20059;-51
2022/01/13 08:42:41;;;;;;;81.00;28.33;;;;;;;1.85;100.00;102987.78;5076430;28;20052;-51
2022/01/13 08:45:12;;;;;;;91.78;30.25;;;;;;;1.97;100.00;102988.84;5075724;28;20052;-52
2022/01/13 08:47:40;;;;;;;88.43;28.70;;;;;;;1.99;100.00;102997.56;5075698;28;20067;-51
2022/01/13 08:50:09;;;;;;;82.95;28.55;;;;;;;1.97;100.00;102999.31;5075051;28;20079;-52
2022/01/13 08:52:39;;;;;;;90.68;29.40;;;;;;;2.00;100.00;103000.22;5075325;28;20065;-52
2022/01/13 08:55:08;;;;;;;86.57;27.40;;;;;;;2.07;100.00;102993.31;5076116;28;20052;-52
2022/01/13 08:57:37;;;;;;;87.05;27.20;;;;;;;2.14;100.00;102997.78;5074909;28;20056;-51
2022/01/13 09:00:07;;;;;;;77.95;28.45;;;;;;;2.14;100.00;103003.00;5075228;28;20052;-52
2022/01/13 09:02:41;;;;;;;79.88;28.10;;;;;;;2.21;100.00;103002.22;5074431;28;20057;-51
2022/01/13 09:05:10;;;;;;;79.35;28.08;;;;;;;2.26;100.00;103007.53;5075499;28;20148;-51
2022/01/13 09:07:40;;;;;;;87.10;29.98;;;;;;;2.26;100.00;103001.41;5074628;28;20060;-52
2022/01/13 09:10:09;;;;;;;74.95;28.23;;;;;;;2.32;100.00;103007.59;5075486;28;20534;-52
2022/01/13 09:12:38;;;;;;;79.05;28.02;;;;;;;2.38;100.00;103007.66;5075801;28;20061;-52
2022/01/13 09:15:29;;;;;;;74.35;28.50;;;;;;;2.45;100.00;103005.13;5075372;28;20056;-50
2022/01/13 09:17:59;;;;;;;69.95;26.10;;;;;;;2.52;100.00;102999.97;5074917;28;20393;-50
2022/01/13 09:20:27;;;;;;;72.70;27.55;;;;;;;2.66;100.00;103002.75;5074191;28;20048;-52
2022/01/13 09:22:57;;;;;;;75.70;28.17;;;;;;;2.66;100.00;102997.50;5074531;28;20063;-52
2022/01/13 09:25:25;;;;;;;71.93;26.25;;;;;;;2.79;100.00;103004.63;5074214;28;20504;-52
2022/01/13 09:27:54;;;;;;;64.90;26.27;;;;;;;2.70;100.00;103003.66;5074302;28;20068;-52
2022/01/13 09:30:22;;;;;;;62.78;25.75;;;;;;;2.73;100.00;103003.69;5074295;28;20500;-52
2022/01/13 09:32:51;;;;;;;71.75;26.17;;;;;;;2.70;100.00;103003.66;5074357;28;20067;-52
2022/01/13 09:35:19;;;;;;;62.22;24.30;;;;;;;2.74;100.00;103005.44;5074372;28;20497;-52
2022/01/13 09:37:47;;;;;;;55.05;23.20;;;;;;;2.87;100.00;102998.59;5074558;28;20072;-52
2022/01/13 09:40:17;;;;;;;54.20;23.58;;;;;;;2.87;100.00;103001.19;5074291;28;20052;-51
2022/01/13 09:42:46;;;;;;;53.28;23.10;;;;;;;2.80;100.00;103002.88;5074556;28;20052;-51
2022/01/13 09:45:15;;;;;;;49.30;21.38;;;;;;;2.84;100.00;102999.44;5073959;28;20052;-51
2022/01/13 09:47:44;;;;;;;47.08;20.42;;;;;;;2.83;100.00;102997.66;5074093;28;20052;-52
2022/01/13 09:50:16;;;;;;;46.70;20.52;;;;;;;2.78;100.00;103007.22;5074158;28;20072;-51
2022/01/13 09:52:44;;;;;;;47.85;19.40;;;;;;;2.82;100.00;103003.78;5074766;28;20057;-52
2022/01/13 09:55:14;;;;;;;36.80;19.25;;;;;;;2.93;100.00;103012.63;5073836;28;20056;-52
2022/01/13 09:57:45;;;;;;;42.05;19.25;;;;;;;2.92;100.00;103005.63;5074667;28;20048;-51
2022/01/13 10:00:15;;;;;;;41.15;18.42;;;;;;;2.94;100.00;103009.16;5074744;28;20079;-52
2022/01/13 10:02:44;;;;;;;32.72;17.85;;;;;;;2.95;100.00;103010.91;5073721;28;20064;-52
2022/01/13 10:05:13;;;;;;;43.13;19.05;;;;;;;3.07;100.00;103010.13;5074781;28;20082;-53
2022/01/13 10:07:43;;;;;;;40.05;18.08;;;;;;;3.14;100.00;103008.44;5073823;28;20059;-50
2022/01/13 10:10:25;;;;;;;35.60;16.92;;;;;;;3.23;100.00;103008.53;5074041;28;20071;-49
2022/01/13 10:13:04;;;;;;;32.70;17.75;;;;;;;3.32;100.00;103005.97;5074253;28;20551;-52
2022/01/13 10:18:38;;;;;;;30.52;16.65;;;;;;;3.40;100.00;102997.31;5074207;28;20057;-51
2022/01/13 10:21:08;;;;;;;31.63;16.42;;;;;;;3.48;100.00;102996.47;5074403;28;20053;-51
2022/01/13 10:23:36;;;;;;;32.70;17.25;;;;;;;3.70;100.00;103007.13;5073854;28;20056;-52
2022/01/13 10:26:12;;;;;;;38.47;17.42;;;;;;;3.85;100.00;103006.31;5074119;28;20397;-52
2022/01/13 10:28:51;;;;;;;27.17;16.10;;;;;;;3.68;100.00;103001.88;5073741;28;20092;-51
2022/01/13 10:31:20;;;;;;;29.70;16.17;;;;;;;3.85;100.00;103001.06;5074904;28;20071;-51
2022/01/13 10:33:48;;;;;;;26.63;14.68;;;;;;;3.93;100.00;102995.88;5073467;28;20140;-52
2022/01/13 10:36:16;;;;;;;32.33;15.30;;;;;;;3.94;100.00;102982.75;5074893;28;20063;-52
2022/01/13 10:38:52;;;;;;;26.95;14.77;;;;;;;3.83;100.00;102992.31;5078471;28;20492;-51
2022/01/13 10:41:31;;;;;;;26.27;13.73;;;;;;;4.02;100.00;102994.19;5077504;28;20057;-52
2022/01/13 10:44:16;;;;;;;27.50;15.02;;;;;;;4.27;100.00;102984.66;5077827;28;20503;-50
2022/01/13 10:47:00;;;;;;;24.57;14.07;;;;;;;4.04;100.00;102984.56;5077812;28;20053;-52
2022/01/13 10:49:37;;;;;;;21.10;12.52;;;;;;;4.18;100.00;102986.38;5077068;28;20813;-51
2022/01/13 10:52:24;;;;;;;23.90;12.63;;;;;;;4.38;100.00;102989.94;5077154;28;20550;-52
2022/01/13 10:54:53;;;;;;;27.48;13.73;;;;;;;4.13;100.00;102974.97;5077344;28;20063;-50
2022/01/13 10:57:24;;;;;;;19.70;11.40;;;;;;;4.37;100.00;102980.31;5078022;28;20488;-52
2022/01/13 10:59:53;;;;;;;25.42;13.70;;;;;;;4.66;100.00;102979.50;5077523;28;20056;-51
2022/01/13 11:02:23;;;;;;;23.05;13.10;;;;;;;4.80;100.00;102977.75;5077936;28;20415;-51
2022/01/13 11:04:53;;;;;;;24.20;12.10;;;;;;;4.62;100.00;102980.38;5077133;28;20065;-49
2022/01/13 11:07:24;;;;;;;21.13;12.48;;;;;;;4.81;100.00;102976.91;5076717;28;20052;-50
2022/01/13 11:09:54;;;;;;;21.52;11.80;;;;;;;4.78;100.00;102971.63;5077678;28;20060;-52
2022/01/13 11:12:31;;;;;;;24.35;12.48;;;;;;;4.77;100.00;102967.22;5077315;28;20053;-52
2022/01/13 11:15:04;;;;;;;23.00;12.32;;;;;;;4.92;100.00;102966.38;5077266;28;20496;-51
2022/01/13 11:17:36;;;;;;;19.38;11.60;;;;;;;5.13;100.00;102965.53;5077413;28;20053;-52
2022/01/13 11:20:05;;;;;;;18.00;10.32;;;;;;;5.20;100.00;102959.38;5078280;28;20072;-52
2022/01/13 11:22:36;;;;;;;25.42;13.48;;;;;;;5.25;100.00;102961.13;5076897;28;20488;-52
2022/01/13 11:25:05;;;;;;;26.25;14.45;;;;;;;5.28;100.00;102958.47;5076572;28;20053;-51
2022/01/13 11:27:33;;;;;;;24.55;13.65;;;;;;;5.37;100.00;102953.22;5076997;28;20489;-51
2022/01/13 11:30:06;;;;;;;23.58;12.75;;;;;;;5.41;100.00;102947.06;5076923;28;20060;-51
2022/01/13 11:32:35;;;;;;;25.75;13.30;;;;;;;5.22;100.00;102941.81;5076339;28;20531;-52
2022/01/13 11:35:03;;;;;;;23.05;13.88;;;;;;;5.42;100.00;102938.28;5076600;28;20504;-51
2022/01/13 11:37:34;;;;;;;22.70;13.13;;;;;;;5.51;100.00;102940.91;5076587;28;20063;-52